WJA351 CYXE-CYYC
Flight info
| Callsign | WJA351 |
|---|---|
| Flight time | N/A |
| Altitude | 38000 |
| Route | OVATA DCT BORIX DCT BIRKO BIRKO6 |
| Aircraft | B38M/M-SDE1FGHILORVWXY/HB1 |
Departure
| Time | 2026-05-04 19:30 |
|---|---|
| Airport | Saskatoon John G. Diefenbaker International Airport (CYXE) |
Arrival
| Time | N/A |
|---|---|
| Airport | Calgary International Airport (CYYC) |
| Time | Latitude | Longitude | Altitude | Speed | Heading |
|---|---|---|---|---|---|
| 2026-05-04 19:13 | 52.17055 | -106.69148 | 1652 ft | 0 kts | 160° |
| 2026-05-04 19:22 | 52.17060 | -106.69151 | 1652 ft | 3 kts | 160° |
| 2026-05-04 19:22 | 52.17085 | -106.69165 | 1652 ft | 4 kts | 160° |
| 2026-05-04 19:22 | 52.17108 | -106.69183 | 1652 ft | 4 kts | 132° |
| 2026-05-04 19:23 | 52.17114 | -106.69215 | 1652 ft | 4 kts | 77° |
| 2026-05-04 19:23 | 52.17109 | -106.69244 | 1652 ft | 1 kts | 69° |
| 2026-05-04 19:23 | 52.17108 | -106.69247 | 1652 ft | 0 kts | 69° |
| 2026-05-04 19:25 | 52.17109 | -106.69243 | 1652 ft | 3 kts | 69° |
| 2026-05-04 19:25 | 52.17123 | -106.69183 | 1652 ft | 7 kts | 65° |
| 2026-05-04 19:26 | 52.17153 | -106.69121 | 1652 ft | 7 kts | 47° |
| 2026-05-04 19:26 | 52.17185 | -106.69053 | 1652 ft | 8 kts | 68° |
| 2026-05-04 19:26 | 52.17187 | -106.68963 | 1652 ft | 10 kts | 98° |
| 2026-05-04 19:26 | 52.17170 | -106.68828 | 1652 ft | 13 kts | 102° |
| 2026-05-04 19:27 | 52.17151 | -106.68678 | 1652 ft | 16 kts | 101° |
| 2026-05-04 19:27 | 52.17127 | -106.68464 | 1652 ft | 20 kts | 101° |
| 2026-05-04 19:27 | 52.17130 | -106.68303 | 1652 ft | 12 kts | 44° |
| 2026-05-04 19:27 | 52.17201 | -106.68268 | 1652 ft | 10 kts | 11° |
| 2026-05-04 19:28 | 52.17263 | -106.68247 | 1652 ft | 8 kts | 12° |
| 2026-05-04 19:28 | 52.17313 | -106.68228 | 1652 ft | 7 kts | 13° |
| 2026-05-04 19:28 | 52.17365 | -106.68213 | 1652 ft | 11 kts | 6° |
| 2026-05-04 19:28 | 52.17431 | -106.68281 | 1651 ft | 13 kts | 279° |
| 2026-05-04 19:29 | 52.17434 | -106.68301 | 1651 ft | 0 kts | 281° |
| 2026-05-04 19:29 | 52.17464 | -106.68570 | 1651 ft | 67 kts | 282° |
| 2026-05-04 19:29 | 52.17609 | -106.69775 | 1659 ft | 147 kts | 281° |
| 2026-05-04 19:29 | 52.17795 | -106.71703 | 2027 ft | 187 kts | 279° |
| 2026-05-04 19:30 | 52.17916 | -106.73847 | 3290 ft | 195 kts | 274° |
| 2026-05-04 19:30 | 52.17828 | -106.76091 | 4235 ft | 210 kts | 268° |
| 2026-05-04 19:30 | 52.17841 | -106.78577 | 4796 ft | 231 kts | 279° |
| 2026-05-04 19:30 | 52.18308 | -106.81097 | 5895 ft | 228 kts | 290° |
| 2026-05-04 19:31 | 52.18800 | -106.83558 | 7069 ft | 235 kts | 288° |
| 2026-05-04 19:31 | 52.19260 | -106.86225 | 7831 ft | 253 kts | 286° |
| 2026-05-04 19:31 | 52.19692 | -106.89069 | 8837 ft | 260 kts | 284° |
| 2026-05-04 19:31 | 52.20093 | -106.91976 | 9864 ft | 268 kts | 283° |
| 2026-05-04 19:32 | 52.20491 | -106.95044 | 10456 ft | 285 kts | 283° |
| 2026-05-04 19:32 | 52.20887 | -106.98291 | 11126 ft | 298 kts | 281° |
| 2026-05-04 19:32 | 52.21191 | -107.01666 | 11991 ft | 302 kts | 280° |
| 2026-05-04 19:32 | 52.21503 | -107.05078 | 12894 ft | 306 kts | 281° |
| 2026-05-04 19:33 | 52.21824 | -107.08523 | 13778 ft | 310 kts | 281° |
| 2026-05-04 19:33 | 52.22151 | -107.12009 | 14570 ft | 313 kts | 281° |
| 2026-05-04 19:33 | 52.22484 | -107.15539 | 15362 ft | 316 kts | 280° |
| 2026-05-04 19:33 | 52.22491 | -107.19155 | 16237 ft | 326 kts | 263° |
| 2026-05-04 19:34 | 52.21682 | -107.22693 | 17017 ft | 342 kts | 242° |
| 2026-05-04 19:34 | 52.20154 | -107.25754 | 17773 ft | 356 kts | 225° |
| 2026-05-04 19:34 | 52.18095 | -107.28110 | 18467 ft | 368 kts | 209° |
| 2026-05-04 19:34 | 52.15681 | -107.29623 | 19073 ft | 376 kts | 198° |
| 2026-05-04 19:35 | 52.13396 | -107.31510 | 19780 ft | 362 kts | 219° |
| 2026-05-04 19:35 | 52.11543 | -107.34116 | 20720 ft | 349 kts | 231° |
| 2026-05-04 19:35 | 52.10160 | -107.37385 | 20896 ft | 355 kts | 245° |
| 2026-05-04 19:35 | 52.09130 | -107.41062 | 21210 ft | 360 kts | 252° |
| 2026-05-04 19:36 | 52.08316 | -107.44910 | 21660 ft | 362 kts | 255° |
| 2026-05-04 19:36 | 52.07596 | -107.48841 | 22233 ft | 364 kts | 255° |
| 2026-05-04 19:36 | 52.06845 | -107.52792 | 22790 ft | 368 kts | 253° |
| 2026-05-04 19:36 | 52.05931 | -107.56695 | 23342 ft | 373 kts | 248° |
| 2026-05-04 19:37 | 52.04889 | -107.60538 | 23951 ft | 363 kts | 258° |
| 2026-05-04 19:37 | 52.04612 | -107.64541 | 24403 ft | 356 kts | 278° |
| 2026-05-04 19:37 | 52.04967 | -107.68583 | 24491 ft | 366 kts | 281° |
| 2026-05-04 19:37 | 52.05553 | -107.72609 | 24899 ft | 365 kts | 287° |
| 2026-05-04 19:38 | 52.06140 | -107.76589 | 25605 ft | 363 kts | 275° |
| 2026-05-04 19:38 | 52.05850 | -107.80707 | 26017 ft | 372 kts | 261° |
| 2026-05-04 19:38 | 52.05509 | -107.84871 | 26272 ft | 376 kts | 265° |
| 2026-05-04 19:38 | 52.05148 | -107.89134 | 26501 ft | 386 kts | 260° |
| 2026-05-04 19:39 | 52.04539 | -107.93409 | 26843 ft | 388 kts | 260° |
| 2026-05-04 19:39 | 52.04220 | -107.97747 | 27202 ft | 389 kts | 263° |
| 2026-05-04 19:39 | 52.03778 | -108.02097 | 27593 ft | 394 kts | 255° |
| 2026-05-04 19:39 | 52.02612 | -108.06160 | 28028 ft | 404 kts | 233° |
| 2026-05-04 19:40 | 52.00391 | -108.08911 | 28583 ft | 411 kts | 194° |
| 2026-05-04 19:40 | 51.97884 | -108.07798 | 28674 ft | 384 kts | 111° |
| 2026-05-04 19:40 | 51.97018 | -108.03587 | 27517 ft | 410 kts | 84° |
| 2026-05-04 19:40 | 51.96991 | -107.99040 | 28385 ft | 394 kts | 84° |
| 2026-05-04 19:41 | 51.96911 | -107.94619 | 28800 ft | 398 kts | 85° |
| 2026-05-04 19:41 | 51.96610 | -107.90118 | 29179 ft | 399 kts | 94° |
| 2026-05-04 19:41 | 51.96097 | -107.85748 | 29972 ft | 391 kts | 93° |
| 2026-05-04 19:41 | 51.95624 | -107.81334 | 29842 ft | 404 kts | 91° |
| 2026-05-04 19:42 | 51.95219 | -107.76781 | 29844 ft | 413 kts | 94° |
| 2026-05-04 19:42 | 51.94744 | -107.72235 | 30474 ft | 403 kts | 90° |
| 2026-05-04 19:42 | 51.94465 | -107.67802 | 31209 ft | 388 kts | 89° |
| 2026-05-04 19:42 | 51.94299 | -107.63521 | 31771 ft | 376 kts | 74° |
| 2026-05-04 19:43 | 51.95309 | -107.59805 | 30937 ft | 364 kts | 46° |
| 2026-05-04 19:43 | 51.96864 | -107.56415 | 29588 ft | 383 kts | 43° |
| 2026-05-04 19:43 | 51.98734 | -107.53345 | 28585 ft | 379 kts | 34° |
| 2026-05-04 19:43 | 52.00834 | -107.50839 | 27890 ft | 373 kts | 19° |
| 2026-05-04 19:44 | 52.03307 | -107.49864 | 27131 ft | 366 kts | 354° |
| 2026-05-04 19:44 | 52.05708 | -107.50913 | 26387 ft | 359 kts | 336° |
| 2026-05-04 19:44 | 52.08089 | -107.51904 | 26624 ft | 352 kts | 347° |
| 2026-05-04 19:44 | 52.10561 | -107.52449 | 26099 ft | 365 kts | 348° |
| 2026-05-04 19:45 | 52.10635 | -107.52464 | 26077 ft | 365 kts | 348° |
| 2026-05-04 19:45 | 52.11216 | -107.52588 | 25908 ft | 365 kts | 348° |
| 2026-05-04 19:46 | 52.13141 | -107.53035 | 25599 ft | 363 kts | 348° |
| 2026-05-04 19:46 | 52.15559 | -107.53736 | 26341 ft | 340 kts | 344° |
| 2026-05-04 19:47 | 52.17804 | -107.54528 | 26532 ft | 348 kts | 342° |
| 2026-05-04 19:50 | 52.17902 | -107.54567 | 26519 ft | 348 kts | 342° |
| 2026-05-04 19:51 | 52.19919 | -107.55401 | 26569 ft | 356 kts | 343° |
| 2026-05-04 19:51 | 52.20269 | -107.55541 | 26607 ft | 356 kts | 342° |
| 2026-05-04 19:52 | 52.20770 | -107.55755 | 26707 ft | 356 kts | 340° |
| 2026-05-04 19:52 | 52.22199 | -107.56475 | 27116 ft | 351 kts | 339° |
| 2026-05-04 19:53 | 52.22576 | -107.56666 | 27196 ft | 351 kts | 340° |
| 2026-05-04 19:53 | 52.24923 | -107.57653 | 26752 ft | 363 kts | 341° |
| 2026-05-04 19:53 | 52.27353 | -107.58846 | 26060 ft | 367 kts | 340° |
| 2026-05-04 19:54 | 52.29826 | -107.59927 | 25351 ft | 369 kts | 345° |
| 2026-05-04 19:54 | 52.32391 | -107.60530 | 24570 ft | 375 kts | 354° |
| 2026-05-04 19:54 | 52.35003 | -107.60415 | 24057 ft | 373 kts | 353° |
| 2026-05-04 19:54 | 52.37506 | -107.61239 | 23502 ft | 363 kts | 338° |
| 2026-05-04 19:55 | 52.39784 | -107.62833 | 22800 ft | 351 kts | 328° |
| 2026-05-04 19:55 | 52.41574 | -107.65426 | 22145 ft | 343 kts | 306° |
| 2026-05-04 19:55 | 52.42665 | -107.68866 | 21492 ft | 339 kts | 291° |
| 2026-05-04 19:55 | 52.43395 | -107.72522 | 20828 ft | 339 kts | 290° |
| 2026-05-04 19:56 | 52.43794 | -107.76358 | 20111 ft | 347 kts | 270° |
| 2026-05-04 19:56 | 52.43228 | -107.80230 | 19385 ft | 356 kts | 248° |
| 2026-05-04 19:56 | 52.41769 | -107.83482 | 18646 ft | 366 kts | 224° |
| 2026-05-04 19:56 | 52.39648 | -107.85828 | 17819 ft | 371 kts | 210° |
| 2026-05-04 19:57 | 52.37388 | -107.87818 | 16965 ft | 367 kts | 214° |
| 2026-05-04 19:57 | 52.35258 | -107.90031 | 16188 ft | 363 kts | 216° |
| 2026-05-04 19:57 | 52.33176 | -107.92251 | 16165 ft | 351 kts | 216° |
| 2026-05-04 19:57 | 52.31095 | -107.94464 | 16133 ft | 363 kts | 216° |
| 2026-05-04 19:58 | 52.28945 | -107.96680 | 15858 ft | 368 kts | 209° |
| 2026-05-04 19:58 | 52.26453 | -107.97832 | 15012 ft | 382 kts | 182° |
| 2026-05-04 19:58 | 52.23839 | -107.97046 | 14203 ft | 388 kts | 153° |
| 2026-05-04 19:58 | 52.21709 | -107.94453 | 13482 ft | 378 kts | 123° |
| 2026-05-04 19:59 | 52.20530 | -107.90815 | 12996 ft | 353 kts | 102° |
| 2026-05-04 19:59 | 52.19977 | -107.87035 | 12504 ft | 334 kts | 89° |
| 2026-05-04 19:59 | 52.20064 | -107.83405 | 12119 ft | 309 kts | 69° |
| 2026-05-04 19:59 | 52.20858 | -107.80331 | 11807 ft | 283 kts | 48° |
| 2026-05-04 20:00 | 52.22094 | -107.78000 | 11486 ft | 265 kts | 40° |
| 2026-05-04 20:00 | 52.23343 | -107.75806 | 10972 ft | 263 kts | 42° |
| 2026-05-04 20:00 | 52.24568 | -107.73600 | 10446 ft | 261 kts | 42° |
| 2026-05-04 20:00 | 52.25778 | -107.71400 | 9927 ft | 259 kts | 43° |
| 2026-05-04 20:01 | 52.26978 | -107.69206 | 9338 ft | 258 kts | 43° |
| 2026-05-04 20:01 | 52.28165 | -107.67028 | 8792 ft | 256 kts | 42° |
| 2026-05-04 20:01 | 52.29346 | -107.64853 | 8211 ft | 255 kts | 43° |
| 2026-05-04 20:01 | 52.30512 | -107.62698 | 7796 ft | 249 kts | 42° |
| 2026-05-04 20:02 | 52.31665 | -107.60576 | 7814 ft | 252 kts | 43° |
| 2026-05-04 20:02 | 52.32829 | -107.58418 | 7857 ft | 254 kts | 43° |
| 2026-05-04 20:02 | 52.34001 | -107.56247 | 7814 ft | 254 kts | 43° |
| 2026-05-04 20:02 | 52.35163 | -107.54090 | 7791 ft | 253 kts | 43° |
| 2026-05-04 20:03 | 52.36327 | -107.51926 | 7798 ft | 253 kts | 43° |
| 2026-05-04 20:03 | 52.37491 | -107.49756 | 7793 ft | 253 kts | 43° |
| 2026-05-04 20:03 | 52.38640 | -107.47613 | 7789 ft | 254 kts | 43° |
| 2026-05-04 20:03 | 52.39746 | -107.45351 | 7780 ft | 258 kts | 54° |
| 2026-05-04 20:04 | 52.40293 | -107.42473 | 7654 ft | 269 kts | 81° |
| 2026-05-04 20:04 | 52.40030 | -107.39412 | 7499 ft | 278 kts | 105° |
| 2026-05-04 20:04 | 52.39123 | -107.36589 | 7333 ft | 282 kts | 117° |
| 2026-05-04 20:04 | 52.38109 | -107.33893 | 7168 ft | 281 kts | 118° |
| 2026-05-04 20:05 | 52.37078 | -107.31181 | 7074 ft | 281 kts | 118° |
| 2026-05-04 20:05 | 52.36041 | -107.28467 | 7030 ft | 282 kts | 118° |
| 2026-05-04 20:05 | 52.34999 | -107.25753 | 6977 ft | 281 kts | 118° |
| 2026-05-04 20:05 | 52.33957 | -107.23044 | 6935 ft | 281 kts | 118° |
| 2026-05-04 20:06 | 52.32915 | -107.20338 | 6882 ft | 281 kts | 118° |
| 2026-05-04 20:06 | 52.31877 | -107.17644 | 6816 ft | 281 kts | 118° |
| 2026-05-04 20:06 | 52.30836 | -107.14945 | 6784 ft | 280 kts | 118° |
| 2026-05-04 20:06 | 52.29796 | -107.12253 | 6745 ft | 280 kts | 118° |
| 2026-05-04 20:07 | 52.28759 | -107.09568 | 6708 ft | 279 kts | 119° |
| 2026-05-04 20:07 | 52.27724 | -107.06897 | 6666 ft | 278 kts | 119° |
| 2026-05-04 20:07 | 52.26693 | -107.04233 | 6625 ft | 277 kts | 118° |
| 2026-05-04 20:07 | 52.25661 | -107.01572 | 6600 ft | 278 kts | 118° |
| 2026-05-04 20:08 | 52.24623 | -106.98900 | 6556 ft | 279 kts | 118° |
| 2026-05-04 20:08 | 52.23582 | -106.96223 | 6516 ft | 279 kts | 118° |
| 2026-05-04 20:08 | 52.22541 | -106.93549 | 6469 ft | 279 kts | 118° |
| 2026-05-04 20:08 | 52.21501 | -106.90877 | 6423 ft | 279 kts | 118° |
| 2026-05-04 20:09 | 52.20459 | -106.88204 | 6385 ft | 280 kts | 120° |
| 2026-05-04 20:09 | 52.19138 | -106.85905 | 6247 ft | 280 kts | 146° |
| 2026-05-04 20:09 | 52.17364 | -106.84623 | 6215 ft | 281 kts | 160° |
| 2026-05-04 20:09 | 52.15519 | -106.83562 | 6178 ft | 282 kts | 160° |
| 2026-05-04 20:10 | 52.13680 | -106.82517 | 6121 ft | 275 kts | 161° |
| 2026-05-04 20:10 | 52.11910 | -106.81519 | 6025 ft | 265 kts | 161° |
| 2026-05-04 20:10 | 52.10229 | -106.80574 | 5976 ft | 252 kts | 161° |
| 2026-05-04 20:10 | 52.08619 | -106.79668 | 5950 ft | 238 kts | 160° |
| 2026-05-04 20:11 | 52.07071 | -106.78798 | 5933 ft | 229 kts | 160° |
| 2026-05-04 20:11 | 52.05585 | -106.77962 | 5926 ft | 228 kts | 160° |
| 2026-05-04 20:11 | 52.04089 | -106.77121 | 5918 ft | 228 kts | 161° |
| 2026-05-04 20:11 | 52.02619 | -106.76147 | 5897 ft | 228 kts | 143° |
| 2026-05-04 20:12 | 52.01723 | -106.74160 | 5650 ft | 216 kts | 97° |
| 2026-05-04 20:12 | 52.01829 | -106.71867 | 5333 ft | 201 kts | 60° |
| 2026-05-04 20:12 | 52.02540 | -106.69997 | 5001 ft | 193 kts | 38° |
| 2026-05-04 20:12 | 52.03632 | -106.68838 | 4495 ft | 187 kts | 13° |
| 2026-05-04 20:13 | 52.04876 | -106.68259 | 4094 ft | 186 kts | 12° |
| 2026-05-04 20:13 | 52.06101 | -106.67659 | 3803 ft | 181 kts | 12° |
| 2026-05-04 20:13 | 52.07267 | -106.67072 | 3610 ft | 169 kts | 11° |
| 2026-05-04 20:13 | 52.08378 | -106.66505 | 3336 ft | 167 kts | 12° |
| 2026-05-04 20:14 | 52.09493 | -106.66066 | 3022 ft | 161 kts | 354° |
| 2026-05-04 20:14 | 52.10535 | -106.66555 | 2714 ft | 152 kts | 340° |
| 2026-05-04 20:14 | 52.11499 | -106.67065 | 2438 ft | 140 kts | 342° |
| 2026-05-04 20:14 | 52.12399 | -106.67447 | 2335 ft | 132 kts | 340° |
| 2026-05-04 20:15 | 52.13269 | -106.67928 | 2313 ft | 132 kts | 337° |
| 2026-05-04 20:15 | 52.14131 | -106.68433 | 2222 ft | 130 kts | 336° |
| 2026-05-04 20:15 | 52.14966 | -106.68933 | 1989 ft | 125 kts | 336° |
| 2026-05-04 20:15 | 52.15785 | -106.69373 | 1790 ft | 122 kts | 335° |
| 2026-05-04 20:16 | 52.16554 | -106.69814 | 1669 ft | 108 kts | 335° |
| 2026-05-04 20:16 | 52.17033 | -106.70063 | 1653 ft | 23 kts | 0° |
| 2026-05-04 20:16 | 52.17175 | -106.70149 | 1654 ft | 30 kts | 341° |
| 2026-05-04 20:16 | 52.17288 | -106.70213 | 1666 ft | 6 kts | 349° |
| 2026-05-04 20:17 | 52.17328 | -106.70166 | 1652 ft | 10 kts | 82° |
| 2026-05-04 20:17 | 52.17316 | -106.70042 | 1652 ft | 13 kts | 102° |
| 2026-05-04 20:17 | 52.17297 | -106.69890 | 1652 ft | 15 kts | 103° |
| 2026-05-04 20:17 | 52.17275 | -106.69717 | 1652 ft | 13 kts | 107° |
| 2026-05-04 20:18 | 52.17200 | -106.69633 | 1652 ft | 15 kts | 161° |
| 2026-05-04 20:18 | 52.17092 | -106.69572 | 1652 ft | 18 kts | 161° |
| 2026-05-04 20:18 | 52.17007 | -106.69511 | 1652 ft | 6 kts | 128° |
| 2026-05-04 20:18 | 52.17020 | -106.69446 | 1652 ft | 8 kts | 44° |
| 2026-05-04 20:19 | 52.17034 | -106.69424 | 1652 ft | 3 kts | 44° |
| 2026-05-04 20:19 | 52.17038 | -106.69383 | 1652 ft | 5 kts | 114° |
| 2026-05-04 20:19 | 52.17012 | -106.69333 | 1652 ft | 0 kts | 131° |
| 2026-05-04 20:19 | 52.17008 | -106.69324 | 1652 ft | 0 kts | 130° |